Time;durP1;ratioP1;P1;durP2;ratioP2;P2;SDS_P1;SDS_P2;PMS_P1;PMS_P2;Temp;Humidity;BMP_temperature;BMP_pressure;BME280_temperature;BME280_humidity;BME280_pressure;Samples;Min_cycle;Max_cycle;Signal;HPM_P1;HPM_P2
2022/05/13 00:01:18;;;;;;;9.38;3.22;;;11.00;99.90;;;;;;4983369;28;20050;-72
2022/05/13 00:03:43;;;;;;;6.38;3.10;;;11.10;99.90;;;;;;4993551;28;20058;-68
2022/05/13 00:06:10;;;;;;;8.10;3.50;;;11.10;99.90;;;;;;4978193;28;20060;-68
2022/05/13 00:08:36;;;;;;;6.40;3.47;;;11.10;99.90;;;;;;4994195;28;20192;-69
2022/05/13 00:11:06;;;;;;;6.60;3.30;;;11.10;99.90;;;;;;5001648;28;20054;-67
2022/05/13 00:13:32;;;;;;;10.30;4.50;;;11.20;99.90;;;;;;4993878;28;20057;-68
2022/05/13 00:15:59;;;;;;;10.93;4.90;;;11.20;99.90;;;;;;4988329;28;20054;-68
2022/05/13 00:18:25;;;;;;;9.68;4.60;;;11.20;99.90;;;;;;4992331;28;20046;-68
2022/05/13 00:20:52;;;;;;;6.85;4.00;;;11.30;99.90;;;;;;4987707;28;22043;-67
2022/05/13 00:23:18;;;;;;;9.07;4.18;;;11.30;99.90;;;;;;4987373;28;20487;-69
2022/05/13 00:25:44;;;;;;;8.57;3.80;;;11.30;99.90;;;;;;4987580;28;20112;-69
2022/05/13 00:28:10;;;;;;;7.38;3.20;;;11.30;99.90;;;;;;5007793;28;20482;-68
2022/05/13 00:30:39;;;;;;;10.15;4.07;;;11.40;99.90;;;;;;4987214;28;20053;-68
2022/05/13 00:33:06;;;;;;;10.85;3.38;;;11.40;99.90;;;;;;4983743;28;20518;-67
2022/05/13 00:35:32;;;;;;;7.80;3.30;;;11.50;99.90;;;;;;4984381;28;20417;-70
2022/05/13 00:37:59;;;;;;;6.82;3.25;;;11.50;99.90;;;;;;5006927;28;20414;-69
2022/05/13 00:40:25;;;;;;;7.53;3.20;;;11.50;99.90;;;;;;5007867;28;20065;-67
2022/05/13 00:42:59;;;;;;;5.93;3.55;;;11.50;99.90;;;;;;4983837;28;20054;-68
2022/05/13 00:45:25;;;;;;;7.47;3.20;;;11.50;99.90;;;;;;4985742;28;20043;-68
2022/05/13 00:47:51;;;;;;;6.53;3.17;;;11.50;99.90;;;;;;4973844;28;20046;-67
2022/05/13 00:50:17;;;;;;;7.90;3.30;;;11.50;99.90;;;;;;4982101;28;20046;-68
2022/05/13 00:52:48;;;;;;;7.70;3.70;;;11.50;99.90;;;;;;4997626;28;20061;-69
2022/05/13 00:55:20;;;;;;;7.72;3.13;;;11.50;99.90;;;;;;4964404;28;20478;-70
2022/05/13 00:57:47;;;;;;;6.22;3.05;;;11.50;99.90;;;;;;4984807;28;20041;-68
2022/05/13 01:00:15;;;;;;;8.40;3.92;;;11.40;99.90;;;;;;4995993;28;20140;-68
2022/05/13 01:02:43;;;;;;;6.97;3.22;;;11.40;99.90;;;;;;4995600;28;20502;-68
2022/05/13 01:05:12;;;;;;;9.45;3.60;;;11.40;99.90;;;;;;5014026;28;20092;-68
2022/05/13 01:07:39;;;;;;;9.20;3.63;;;11.40;99.90;;;;;;4991027;28;20187;-68
2022/05/13 01:10:08;;;;;;;8.02;4.07;;;11.40;99.90;;;;;;4979642;28;20046;-69
2022/05/13 01:12:41;;;;;;;7.72;3.72;;;11.40;99.90;;;;;;4992854;28;20054;-68
2022/05/13 01:15:15;;;;;;;10.05;3.58;;;11.50;99.90;;;;;;4988757;28;20081;-70
2022/05/13 01:20:34;;;;;;;7.72;3.55;;;11.50;99.90;;;;;;5009681;28;20061;-68
2022/05/13 01:23:06;;;;;;;8.40;3.22;;;11.50;99.90;;;;;;5010430;28;20042;-70
2022/05/13 01:25:37;;;;;;;8.18;3.60;;;11.50;99.90;;;;;;4976244;28;20049;-68
2022/05/13 01:28:12;;;;;;;11.73;5.20;;;11.50;99.90;;;;;;4993149;28;20038;-69
2022/05/13 01:30:42;;;;;;;9.52;5.10;;;11.50;99.90;;;;;;5006306;28;20461;-70
2022/05/13 01:33:09;;;;;;;11.90;4.70;;;11.60;99.90;;;;;;4993684;28;20112;-69
2022/05/13 01:35:39;;;;;;;15.68;7.35;;;11.60;99.90;;;;;;4994916;28;20049;-69
2022/05/13 01:38:05;;;;;;;11.70;6.32;;;11.60;99.90;;;;;;4992159;28;20056;-70
2022/05/13 01:40:32;;;;;;;13.57;8.93;;;11.60;99.90;;;;;;4989495;28;20060;-69
2022/05/13 01:42:58;;;;;;;19.42;7.70;;;11.70;99.90;;;;;;4996232;28;20094;-69
2022/05/13 01:45:24;;;;;;;18.13;10.40;;;11.70;99.90;;;;;;4986697;28;20042;-71
2022/05/13 01:47:51;;;;;;;18.75;12.13;;;11.80;99.90;;;;;;4989091;28;20046;-70
2022/05/13 01:50:17;;;;;;;21.63;13.60;;;11.80;99.90;;;;;;4972333;28;20133;-69
2022/05/13 01:52:43;;;;;;;19.98;12.25;;;11.80;99.90;;;;;;4989193;28;20162;-69
2022/05/13 01:55:09;;;;;;;18.08;9.75;;;11.80;99.90;;;;;;4994734;28;20053;-68
2022/05/13 01:57:35;;;;;;;18.65;9.98;;;11.80;99.90;;;;;;4990463;28;20084;-70
2022/05/13 02:00:02;;;;;;;14.32;7.32;;;11.90;99.90;;;;;;4989540;28;20057;-69
2022/05/13 02:02:28;;;;;;;10.60;5.45;;;11.90;99.90;;;;;;4959180;28;20144;-70
2022/05/13 02:04:54;;;;;;;9.77;5.13;;;11.80;99.90;;;;;;4974586;28;20053;-69
2022/05/13 02:07:20;;;;;;;13.18;4.20;;;11.80;99.90;;;;;;5006755;28;20050;-69
2022/05/13 02:09:46;;;;;;;11.73;4.10;;;11.80;99.90;;;;;;4973978;28;20129;-70
2022/05/13 02:12:12;;;;;;;11.23;3.72;;;11.80;99.90;;;;;;4989473;28;20124;-69
2022/05/13 02:14:38;;;;;;;10.07;3.22;;;11.80;99.90;;;;;;4990339;28;20137;-70
2022/05/13 02:17:04;;;;;;;9.75;3.50;;;11.90;99.90;;;;;;4991237;28;20429;-71
2022/05/13 02:19:30;;;;;;;13.95;3.67;;;11.90;99.90;;;;;;4990888;28;20054;-69
2022/05/13 02:21:56;;;;;;;11.75;3.45;;;11.90;99.90;;;;;;4991857;28;20053;-68
2022/05/13 02:24:21;;;;;;;7.47;2.85;;;11.80;99.90;;;;;;4973963;28;20045;-69
2022/05/13 02:26:47;;;;;;;8.23;3.55;;;11.90;99.90;;;;;;4992389;28;20491;-71
2022/05/13 02:29:13;;;;;;;10.98;3.88;;;11.90;99.90;;;;;;4978043;28;20487;-68
2022/05/13 02:31:39;;;;;;;8.10;3.10;;;11.90;99.90;;;;;;4986888;28;20452;-69
2022/05/13 02:34:05;;;;;;;8.90;3.28;;;11.90;99.90;;;;;;4996792;28;20050;-68
2022/05/13 02:36:31;;;;;;;8.18;3.30;;;11.90;99.90;;;;;;4986979;28;20125;-68
2022/05/13 02:38:57;;;;;;;10.93;3.85;;;11.90;99.90;;;;;;4976726;28;20046;-68
2022/05/13 02:41:23;;;;;;;7.93;3.70;;;11.90;99.90;;;;;;4976560;28;20526;-69
2022/05/13 02:43:54;;;;;;;7.80;3.80;;;11.90;99.90;;;;;;4994403;28;20137;-69
2022/05/13 02:46:28;;;;;;;;;;;11.90;99.90;;;;;;4988038;28;20513;-69
2022/05/13 02:48:54;;;;;;;9.65;4.22;;;11.90;99.90;;;;;;4996023;28;19970;-69
2022/05/13 02:51:21;;;;;;;7.68;3.58;;;11.80;99.90;;;;;;4984516;28;20053;-70
2022/05/13 02:53:47;;;;;;;12.35;3.75;;;11.90;99.90;;;;;;4976482;28;20104;-68
2022/05/13 02:56:14;;;;;;;10.63;4.88;;;11.80;99.90;;;;;;4976008;28;20081;-69
2022/05/13 02:58:41;;;;;;;13.38;4.82;;;11.80;99.90;;;;;;4972136;28;20163;-69
2022/05/13 03:01:10;;;;;;;11.73;4.50;;;11.80;99.90;;;;;;4994124;28;20050;-69
2022/05/13 03:03:39;;;;;;;14.80;5.75;;;11.80;99.90;;;;;;5011510;28;20081;-68
2022/05/13 03:06:05;;;;;;;18.15;10.48;;;11.80;99.90;;;;;;4988941;28;20045;-69
2022/05/13 03:08:31;;;;;;;32.33;16.10;;;11.80;99.90;;;;;;4958369;28;20528;-68
2022/05/13 03:10:57;;;;;;;25.55;13.93;;;11.80;99.90;;;;;;4988560;28;20038;-69
2022/05/13 03:13:23;;;;;;;20.67;9.48;;;11.80;99.90;;;;;;4972386;28;20053;-69
2022/05/13 03:15:49;;;;;;;15.52;6.85;;;11.80;99.90;;;;;;4987606;28;20627;-68
2022/05/13 03:18:15;;;;;;;17.60;7.13;;;11.70;99.90;;;;;;4989041;28;20136;-70
2022/05/13 03:20:41;;;;;;;14.27;6.47;;;11.70;99.90;;;;;;4984947;28;20406;-69
2022/05/13 03:23:07;;;;;;;15.13;8.27;;;11.70;99.90;;;;;;4988405;28;20088;-70
2022/05/13 03:25:33;;;;;;;17.83;8.60;;;11.70;99.90;;;;;;4973238;28;20038;-69
2022/05/13 03:27:59;;;;;;;17.50;8.50;;;11.70;99.90;;;;;;4992257;28;20057;-68
2022/05/13 03:30:26;;;;;;;21.58;10.50;;;11.70;99.90;;;;;;4990163;28;20175;-68
2022/05/13 03:32:53;;;;;;;22.27;12.40;;;11.70;99.90;;;;;;4971757;28;20046;-68
2022/05/13 03:35:20;;;;;;;29.50;13.60;;;11.70;99.90;;;;;;4987506;28;20053;-70
2022/05/13 03:37:46;;;;;;;23.77;13.85;;;11.70;99.90;;;;;;4991308;28;20053;-69
2022/05/13 03:40:14;;;;;;;27.20;14.18;;;11.70;99.90;;;;;;4974363;28;20560;-69
2022/05/13 03:42:42;;;;;;;25.83;14.50;;;11.70;99.90;;;;;;4988002;28;20046;-69
2022/05/13 03:45:10;;;;;;;30.45;13.15;;;11.60;99.90;;;;;;4988795;28;20098;-68
2022/05/13 03:47:36;;;;;;;27.55;13.27;;;11.60;99.90;;;;;;4988116;28;20053;-68
2022/05/13 03:50:03;;;;;;;26.33;10.15;;;11.60;99.90;;;;;;4992601;28;20042;-69
2022/05/13 03:52:30;;;;;;;17.13;8.27;;;11.70;99.90;;;;;;4983767;28;20057;-70
2022/05/13 03:54:56;;;;;;;20.88;7.22;;;11.70;99.90;;;;;;4991128;28;20081;-71
2022/05/13 03:57:22;;;;;;;17.10;5.95;;;11.70;99.90;;;;;;4989316;28;20058;-68
2022/05/13 03:59:48;;;;;;;12.73;4.20;;;11.70;99.90;;;;;;4972383;28;20481;-69
2022/05/13 04:02:14;;;;;;;11.27;4.30;;;11.80;99.90;;;;;;4988631;28;20136;-70
2022/05/13 04:10:09;;;;;;;12.70;4.88;;;11.80;99.90;;;;;;4987506;28;20105;-69
2022/05/13 04:18:07;;;;;;;14.73;4.57;;;11.70;99.90;;;;;;4989534;28;20077;-68
2022/05/13 04:20:34;;;;;;;11.43;5.30;;;11.70;99.90;;;;;;4973257;28;20049;-68
2022/05/13 04:23:00;;;;;;;10.82;4.90;;;11.70;99.90;;;;;;4969420;28;20140;-69
2022/05/13 04:25:26;;;;;;;11.65;4.68;;;11.80;99.90;;;;;;4987103;28;20079;-69
2022/05/13 04:27:52;;;;;;;11.80;4.75;;;11.70;99.90;;;;;;4957063;28;20410;-69
2022/05/13 04:30:18;;;;;;;18.23;4.70;;;11.80;99.90;;;;;;4999728;28;20054;-69
2022/05/13 04:32:44;;;;;;;11.70;4.32;;;11.80;99.90;;;;;;4974749;28;20050;-69
2022/05/13 04:35:10;;;;;;;10.38;4.18;;;11.80;99.90;;;;;;5005169;28;20042;-68
2022/05/13 04:37:38;;;;;;;15.32;4.50;;;11.80;99.90;;;;;;4990796;28;20073;-69
2022/05/13 04:40:05;;;;;;;14.68;5.05;;;11.80;99.90;;;;;;4992303;28;20407;-69
2022/05/13 04:42:49;;;;;;;14.65;4.72;;;11.80;99.90;;;;;;4960131;28;20449;-68
2022/05/13 04:45:27;;;;;;;14.65;4.57;;;11.80;99.90;;;;;;4984051;28;20054;-69
2022/05/13 04:50:40;;;;;;;15.15;4.47;;;11.80;99.90;;;;;;4993817;28;20071;-68
2022/05/13 04:53:07;;;;;;;14.30;4.90;;;11.80;99.90;;;;;;4994494;28;20053;-69
2022/05/13 04:55:33;;;;;;;15.48;5.20;;;11.80;99.90;;;;;;5008935;28;20494;-68
2022/05/13 04:58:00;;;;;;;17.65;4.90;;;11.80;99.90;;;;;;4994103;28;20502;-69
2022/05/13 05:00:26;;;;;;;11.48;5.00;;;11.80;99.90;;;;;;4994119;28;20048;-68
2022/05/13 05:02:52;;;;;;;12.18;4.25;;;11.80;99.90;;;;;;4976735;28;20050;-68
2022/05/13 05:05:19;;;;;;;11.00;4.72;;;11.80;99.90;;;;;;4965821;28;20054;-70
2022/05/13 05:07:45;;;;;;;12.77;4.60;;;11.80;99.90;;;;;;4974506;28;20081;-68
2022/05/13 05:10:11;;;;;;;15.82;4.65;;;11.90;99.90;;;;;;4990455;28;20054;-68
2022/05/13 05:12:38;;;;;;;19.95;5.03;;;11.80;99.90;;;;;;4990951;28;20065;-68
2022/05/13 05:15:06;;;;;;;12.73;4.10;;;11.90;99.90;;;;;;4990766;28;20046;-69
2022/05/13 05:17:32;;;;;;;14.20;4.25;;;11.90;99.90;;;;;;4977575;28;20046;-69
2022/05/13 05:19:58;;;;;;;14.43;4.15;;;12.00;99.90;;;;;;4976397;28;20092;-69
2022/05/13 05:22:25;;;;;;;15.85;4.30;;;12.00;99.90;;;;;;4997460;28;20050;-69
2022/05/13 05:24:51;;;;;;;14.18;4.35;;;12.00;99.90;;;;;;4994735;28;20450;-68
2022/05/13 05:27:17;;;;;;;14.82;4.50;;;12.00;99.90;;;;;;4985219;28;20042;-69
2022/05/13 05:29:45;;;;;;;12.85;4.28;;;12.10;99.90;;;;;;4999318;28;20046;-69
2022/05/13 05:32:11;;;;;;;12.82;4.30;;;12.20;99.90;;;;;;5005807;28;20048;-70
2022/05/13 05:34:37;;;;;;;17.58;4.15;;;12.20;99.90;;;;;;5010182;28;20133;-70
2022/05/13 05:37:03;;;;;;;16.02;4.35;;;12.30;99.90;;;;;;4992259;28;20038;-68
2022/05/13 05:39:29;;;;;;;12.23;4.00;;;12.30;99.90;;;;;;5012071;28;20554;-68
2022/05/13 05:41:56;;;;;;;13.55;4.32;;;12.40;99.90;;;;;;4984985;28;20050;-69
2022/05/13 05:44:22;;;;;;;13.23;3.80;;;12.40;99.90;;;;;;4993549;28;20494;-69
2022/05/13 05:46:48;;;;;;;12.55;4.00;;;12.50;99.90;;;;;;4976033;28;20041;-69
2022/05/13 05:49:14;;;;;;;18.35;4.78;;;12.50;99.90;;;;;;4993805;28;20096;-69
2022/05/13 05:51:40;;;;;;;10.15;4.32;;;12.60;99.90;;;;;;4977398;28;20046;-69
2022/05/13 05:59:36;;;;;;;13.98;4.13;;;12.90;99.90;;;;;;4996808;28;20085;-68
2022/05/13 06:02:02;;;;;;;14.25;4.20;;;13.00;99.90;;;;;;4993056;28;20435;-69
2022/05/13 06:04:28;;;;;;;15.88;4.32;;;13.00;99.90;;;;;;4979328;28;20042;-69
2022/05/13 06:06:54;;;;;;;14.80;3.92;;;13.10;99.90;;;;;;4985994;28;20399;-70
2022/05/13 06:09:20;;;;;;;14.73;4.10;;;13.20;99.90;;;;;;4977110;28;20056;-68
2022/05/13 06:11:47;;;;;;;13.18;4.10;;;13.30;99.90;;;;;;4959402;28;20301;-72
2022/05/13 06:14:13;;;;;;;12.13;3.85;;;13.30;99.90;;;;;;5008183;28;20050;-68
2022/05/13 06:16:39;;;;;;;14.82;4.40;;;13.40;99.90;;;;;;4987164;28;20108;-69
2022/05/13 06:19:05;;;;;;;14.10;4.13;;;13.50;99.90;;;;;;4961245;28;20038;-71
2022/05/13 06:21:33;;;;;;;16.33;4.57;;;13.50;99.90;;;;;;4997038;28;20050;-69
2022/05/13 06:24:00;;;;;;;17.10;4.28;;;13.50;99.90;;;;;;4978677;28;20479;-68
2022/05/13 06:26:26;;;;;;;11.50;3.88;;;13.50;99.90;;;;;;4989441;28;20569;-68
2022/05/13 06:28:52;;;;;;;18.48;4.05;;;13.50;99.90;;;;;;4995958;28;20136;-67
2022/05/13 06:31:19;;;;;;;10.48;3.90;;;13.50;99.90;;;;;;4977883;28;20042;-68
2022/05/13 06:33:46;;;;;;;12.52;3.70;;;13.50;99.90;;;;;;4986491;28;20486;-67
2022/05/13 06:36:13;;;;;;;11.00;3.55;;;13.60;99.90;;;;;;4978623;28;20041;-67
2022/05/13 06:38:39;;;;;;;15.60;3.67;;;13.60;99.90;;;;;;4996288;28;20054;-69
2022/05/13 06:41:05;;;;;;;11.65;3.78;;;13.50;99.90;;;;;;4979301;28;20549;-68
2022/05/13 06:43:31;;;;;;;16.58;3.85;;;13.50;99.90;;;;;;4973301;28;20414;-67
2022/05/13 06:45:57;;;;;;;15.63;3.75;;;13.50;99.90;;;;;;4975202;28;20052;-67
2022/05/13 06:48:23;;;;;;;11.50;3.80;;;13.60;99.90;;;;;;4992082;28;20045;-68
2022/05/13 06:50:49;;;;;;;9.32;3.60;;;13.70;99.90;;;;;;4991458;28;20703;-72
2022/05/13 06:53:16;;;;;;;14.23;3.85;;;13.70;99.90;;;;;;4975999;28;20057;-67
2022/05/13 06:55:45;;;;;;;10.43;3.75;;;13.80;99.90;;;;;;4978493;28;20387;-71
2022/05/13 06:58:13;;;;;;;13.32;3.30;;;13.90;99.90;;;;;;4994761;28;20096;-67
2022/05/13 07:00:39;;;;;;;10.60;3.53;;;13.90;99.90;;;;;;4989045;28;20101;-67
2022/05/13 07:03:07;;;;;;;10.23;3.55;;;14.00;99.90;;;;;;4993821;28;20399;-67
2022/05/13 07:05:33;;;;;;;10.73;3.70;;;14.10;99.90;;;;;;4967304;28;20118;-67
2022/05/13 07:07:59;;;;;;;10.88;3.33;;;14.20;99.90;;;;;;5011300;28;20061;-67
2022/05/13 07:10:25;;;;;;;11.00;3.03;;;14.30;99.90;;;;;;4986811;28;20531;-67
2022/05/13 07:12:51;;;;;;;9.10;3.33;;;14.40;99.90;;;;;;4976004;28;20041;-66
2022/05/13 07:15:19;;;;;;;9.05;2.85;;;14.40;99.90;;;;;;4989487;28;20494;-69
2022/05/13 07:17:45;;;;;;;10.05;3.13;;;14.30;99.90;;;;;;4993588;28;20053;-70
2022/05/13 07:20:13;;;;;;;7.32;2.70;;;14.30;99.90;;;;;;4994291;28;20121;-71
2022/05/13 07:22:40;;;;;;;7.20;2.42;;;14.30;99.90;;;;;;4978899;28;20145;-71
2022/05/13 07:25:07;;;;;;;8.43;2.85;;;14.40;99.90;;;;;;5011581;28;20754;-71
2022/05/13 07:27:33;;;;;;;10.00;2.63;;;14.40;99.90;;;;;;5010266;28;20054;-70
2022/05/13 07:29:59;;;;;;;5.85;2.40;;;14.40;99.90;;;;;;4993211;28;20042;-70
2022/05/13 07:32:25;;;;;;;5.40;2.67;;;14.50;99.90;;;;;;4987385;28;20111;-74
2022/05/13 07:34:51;;;;;;;6.65;2.80;;;14.60;99.90;;;;;;4990704;28;20045;-67
2022/05/13 07:37:17;;;;;;;5.07;2.50;;;14.70;99.90;;;;;;4991625;28;20422;-69
2022/05/13 07:42:27;;;;;;;6.65;2.60;;;14.70;99.90;;;;;;4991081;28;20506;-67
2022/05/13 07:44:53;;;;;;;8.40;2.60;;;14.60;99.90;;;;;;4972900;28;20106;-67
2022/05/13 07:47:20;;;;;;;6.30;2.47;;;14.50;99.90;;;;;;4989519;28;20042;-66
2022/05/13 07:49:46;;;;;;;4.80;2.17;;;14.40;99.90;;;;;;4974503;28;20574;-67
2022/05/13 07:52:12;;;;;;;6.50;2.67;;;14.30;99.90;;;;;;4991421;28;20070;-67
2022/05/13 07:54:38;;;;;;;8.20;2.72;;;14.20;99.90;;;;;;4977740;28;20418;-67
2022/05/13 07:57:05;;;;;;;7.10;2.50;;;14.20;99.90;;;;;;4975640;28;20041;-67
2022/05/13 07:59:32;;;;;;;5.90;2.33;;;14.50;99.90;;;;;;5010518;28;20044;-69
2022/05/13 08:01:59;;;;;;;8.27;2.20;;;14.90;99.90;;;;;;4992965;28;20049;-67
2022/05/13 08:04:25;;;;;;;8.63;2.28;;;14.70;99.90;;;;;;4983392;28;20038;-67
2022/05/13 08:06:51;;;;;;;7.20;2.40;;;14.70;99.90;;;;;;4972923;28;20398;-66
2022/05/13 08:09:18;;;;;;;7.07;2.17;;;14.90;99.90;;;;;;4994457;28;20046;-67
2022/05/13 08:11:44;;;;;;;4.50;1.92;;;15.00;99.90;;;;;;4994401;28;20581;-72
2022/05/13 08:14:11;;;;;;;9.50;2.45;;;15.20;99.90;;;;;;4991306;28;20494;-68
2022/05/13 08:16:37;;;;;;;4.72;2.05;;;15.60;99.90;;;;;;4977960;28;20054;-67
2022/05/13 08:19:04;;;;;;;6.00;1.73;;;15.70;99.90;;;;;;4992760;28;20498;-68
2022/05/13 08:21:30;;;;;;;5.13;1.77;;;15.80;99.90;;;;;;4999996;28;20053;-68
2022/05/13 08:23:56;;;;;;;5.68;1.85;;;15.30;99.90;;;;;;4992807;28;20487;-69
2022/05/13 08:26:22;;;;;;;6.10;1.92;;;15.40;99.90;;;;;;4988375;28;20502;-68
2022/05/13 08:28:48;;;;;;;6.28;1.70;;;15.30;99.90;;;;;;4994222;28;20088;-68
2022/05/13 08:31:14;;;;;;;4.38;1.48;;;15.20;99.90;;;;;;4993710;28;20077;-70
2022/05/13 08:33:42;;;;;;;8.68;1.77;;;15.20;99.90;;;;;;5007048;28;20062;-67
2022/05/13 08:36:08;;;;;;;4.28;1.70;;;15.00;99.90;;;;;;5003980;28;20656;-68
2022/05/13 08:38:37;;;;;;;5.10;1.42;;;14.90;99.90;;;;;;4990587;28;20092;-68
2022/05/13 08:41:10;;;;;;;5.82;1.65;;;14.80;99.90;;;;;;5007092;28;20108;-68
2022/05/13 08:43:56;;;;;;;4.85;1.77;;;14.90;99.90;;;;;;4972717;28;20457;-68
2022/05/13 08:46:37;;;;;;;5.13;1.73;;;14.80;99.90;;;;;;4991929;28;20049;-68
2022/05/13 08:49:55;;;;;;;8.90;1.90;;;14.80;99.90;;;;;;5005255;28;20176;-67
2022/05/13 08:55:21;;;;;;;3.80;1.85;;;14.80;99.90;;;;;;5009223;28;20119;-69
2022/05/13 08:57:49;;;;;;;5.85;1.98;;;14.60;99.90;;;;;;4994410;28;20119;-67
2022/05/13 09:00:41;;;;;;;5.93;2.17;;;14.30;99.90;;;;;;4994208;28;20176;-69
2022/05/13 09:03:25;;;;;;;5.65;2.17;;;14.30;99.90;;;;;;4983312;28;20596;-67
2022/05/13 09:06:12;;;;;;;4.28;1.90;;;14.40;99.90;;;;;;4994498;28;20487;-70
2022/05/13 09:08:39;;;;;;;7.18;2.08;;;14.50;99.90;;;;;;5011067;28;20441;-67
2022/05/13 09:11:05;;;;;;;4.80;2.00;;;14.70;99.90;;;;;;4977103;28;20053;-69
2022/05/13 09:13:59;;;;;;;10.70;2.28;;;15.00;99.90;;;;;;4992700;28;20108;-67
2022/05/13 09:16:50;;;;;;;7.38;2.10;;;15.30;99.90;;;;;;5007938;28;20089;-67
2022/05/13 09:19:45;;;;;;;6.47;2.05;;;15.70;99.90;;;;;;4986629;28;20050;-69
2022/05/13 09:22:12;;;;;;;6.38;2.17;;;15.70;99.90;;;;;;4997386;28;20060;-68
2022/05/13 09:24:40;;;;;;;5.88;1.88;;;15.70;99.90;;;;;;4991512;28;20469;-68
2022/05/13 09:27:06;;;;;;;5.68;1.92;;;15.60;99.90;;;;;;4981633;28;20396;-67
2022/05/13 09:29:41;;;;;;;10.43;2.33;;;15.60;99.90;;;;;;4992231;28;20041;-68
2022/05/13 09:32:14;;;;;;;4.72;2.00;;;15.70;99.90;;;;;;4994983;28;20053;-68
2022/05/13 09:34:54;;;;;;;7.22;2.13;;;15.80;99.90;;;;;;4990279;28;20081;-68
2022/05/13 09:37:25;;;;;;;6.68;2.00;;;16.10;99.90;;;;;;4990526;28;20057;-67
2022/05/13 09:40:06;;;;;;;4.88;2.38;;;16.30;99.90;;;;;;4993379;28;20041;-68
2022/05/13 09:42:37;;;;;;;;;;;16.30;99.90;;;;;;4992149;28;20506;-68
2022/05/13 09:45:14;;;;;;;5.22;1.50;;;16.50;99.90;;;;;;4993203;28;19921;-68
2022/05/13 09:47:41;;;;;;;8.07;1.90;;;16.60;99.90;;;;;;4977794;28;20144;-68
2022/05/13 09:50:26;;;;;;;3.28;1.80;;;16.60;99.90;;;;;;4973350;28;20054;-68
2022/05/13 09:52:53;;;;;;;5.45;1.88;;;16.60;99.90;;;;;;4993799;28;20046;-68
2022/05/13 09:55:49;;;;;;;7.43;2.00;;;16.90;99.90;;;;;;4989187;28;20073;-68
2022/05/13 09:58:23;;;;;;;4.07;1.70;;;16.90;99.90;;;;;;4981074;28;20491;-67
2022/05/13 10:00:53;;;;;;;4.63;1.60;;;16.70;99.90;;;;;;4975674;28;20486;-69
2022/05/13 10:03:29;;;;;;;3.55;1.60;;;16.60;99.90;;;;;;4992507;28;20494;-68
2022/05/13 10:06:11;;;;;;;2.83;1.52;;;16.20;99.90;;;;;;4992646;28;20045;-69
2022/05/13 10:08:57;;;;;;;;;;;16.00;99.90;;;;;;4992670;28;20390;-69
2022/05/13 10:14:28;;;;;;;4.20;1.30;;;15.90;99.90;;;;;;4983172;28;20057;-68
2022/05/13 10:16:59;;;;;;;3.83;1.30;;;16.00;99.90;;;;;;4994117;28;20081;-70
2022/05/13 10:19:36;;;;;;;4.43;1.53;;;16.00;99.90;;;;;;4991729;28;20471;-68
2022/05/13 10:22:23;;;;;;;4.18;1.40;;;15.90;99.90;;;;;;4976544;28;20053;-68
2022/05/13 10:24:54;;;;;;;3.22;1.60;;;15.90;99.90;;;;;;4977215;28;20057;-68
2022/05/13 10:27:53;;;;;;;3.58;1.48;;;15.80;99.90;;;;;;4979857;28;20049;-68
2022/05/13 10:30:50;;;;;;;4.20;1.60;;;15.80;99.90;;;;;;4996091;28;20041;-67
2022/05/13 10:33:38;;;;;;;4.32;1.35;;;15.90;99.90;;;;;;4984201;28;20049;-70
2022/05/13 10:36:31;;;;;;;6.13;1.48;;;16.60;99.90;;;;;;4973078;28;20045;-68
2022/05/13 10:39:22;;;;;;;6.80;1.65;;;17.10;99.90;;;;;;4991975;28;20441;-68
2022/05/13 10:41:59;;;;;;;5.75;1.98;;;17.30;99.90;;;;;;4983137;28;20411;-71
2022/05/13 10:44:46;;;;;;;3.10;1.30;;;17.20;99.90;;;;;;4989072;28;20055;-70
2022/05/13 10:47:37;;;;;;;3.08;1.42;;;17.80;99.90;;;;;;4971016;28;20533;-69
2022/05/13 10:50:29;;;;;;;;;;;17.80;99.90;;;;;;4988646;28;20081;-69
2022/05/13 10:53:39;;;;;;;4.97;1.30;;;17.80;99.90;;;;;;4970957;28;19968;-70
2022/05/13 10:56:16;;;;;;;3.47;1.30;;;17.80;99.90;;;;;;4910324;28;20155;-69
2022/05/13 10:59:11;;;;;;;4.78;1.42;;;18.20;99.90;;;;;;4988618;28;20042;-70
2022/05/13 11:01:48;;;;;;;4.60;1.30;;;18.00;99.90;;;;;;4986448;28;20169;-69
2022/05/13 11:04:39;;;;;;;5.97;1.23;;;17.80;99.90;;;;;;4991131;28;20059;-69
2022/05/13 11:07:17;;;;;;;6.78;1.50;;;17.60;99.90;;;;;;4976714;28;20050;-68
2022/05/13 11:09:43;;;;;;;2.38;0.93;;;17.60;99.90;;;;;;4971661;28;20060;-68
2022/05/13 11:12:31;;;;;;;3.90;1.00;;;17.30;99.90;;;;;;4992474;28;20482;-70
2022/05/13 11:15:18;;;;;;;4.10;1.50;;;17.10;99.90;;;;;;5011157;28;20048;-68
2022/05/13 11:17:49;;;;;;;3.13;1.58;;;16.90;99.90;;;;;;4995448;28;20045;-67
2022/05/13 11:20:34;;;;;;;5.25;1.30;;;16.70;99.90;;;;;;4992275;28;20132;-67
2022/05/13 11:23:07;;;;;;;5.32;1.60;;;16.70;99.90;;;;;;4991987;28;20084;-68
2022/05/13 11:26:06;;;;;;;3.17;1.45;;;17.10;99.90;;;;;;4976824;28;20042;-67
2022/05/13 11:28:53;;;;;;;3.60;1.10;;;17.20;99.90;;;;;;4984779;28;20104;-68
2022/05/13 11:31:25;;;;;;;2.38;1.55;;;17.30;99.90;;;;;;4982493;28;20589;-68
2022/05/13 11:34:02;;;;;;;2.60;1.30;;;17.20;99.90;;;;;;4982743;28;20050;-68
2022/05/13 11:36:59;;;;;;;5.15;1.38;;;17.00;99.90;;;;;;4987871;28;20046;-68
2022/05/13 11:39:59;;;;;;;2.75;1.38;;;16.80;99.90;;;;;;4993686;28;20061;-69
2022/05/13 11:46:00;;;;;;;2.97;1.25;;;16.90;99.90;;;;;;4980981;28;20197;-69
2022/05/13 11:49:16;;;;;;;2.55;1.38;;;17.00;99.90;;;;;;4986203;28;20407;-67
2022/05/13 11:51:42;;;;;;;5.55;1.50;;;17.10;99.90;;;;;;4988892;28;20490;-76
2022/05/13 11:54:19;;;;;;;6.25;1.33;;;17.10;99.90;;;;;;4963924;28;20056;-72
2022/05/13 11:56:46;;;;;;;5.88;1.50;;;16.90;99.90;;;;;;4994907;28;20177;-73
2022/05/13 11:59:30;;;;;;;3.22;1.00;;;16.80;99.90;;;;;;4994556;28;20120;-75
2022/05/13 12:02:08;;;;;;;1.98;0.80;;;16.60;99.90;;;;;;4976913;28;20050;-71
2022/05/13 12:04:37;;;;;;;3.00;1.20;;;16.80;99.90;;;;;;4984612;28;20054;-71
2022/05/13 12:07:21;;;;;;;6.68;1.48;;;16.90;99.90;;;;;;4990438;28;20491;-71
2022/05/13 12:09:51;;;;;;;3.13;1.10;;;17.10;99.90;;;;;;5010521;28;20052;-70
2022/05/13 12:12:45;;;;;;;4.45;1.50;;;16.90;99.90;;;;;;4993808;28;20045;-71
2022/05/13 12:15:10;;;;;;;4.97;1.38;;;16.90;99.90;;;;;;4991149;28;20479;-70
2022/05/13 12:17:40;;;;;;;4.72;1.80;;;17.00;99.90;;;;;;4990601;28;20117;-70
2022/05/13 12:20:32;;;;;;;4.38;1.40;;;17.00;99.90;;;;;;4991752;28;20092;-70
2022/05/13 12:23:12;;;;;;;5.00;1.45;;;16.90;99.90;;;;;;4975730;28;20499;-70
2022/05/13 12:25:38;;;;;;;3.20;1.00;;;17.00;99.90;;;;;;4993754;28;20057;-70
2022/05/13 12:28:21;;;;;;;5.78;1.60;;;16.90;99.90;;;;;;4993019;28;20509;-71
2022/05/13 12:30:52;;;;;;;6.57;1.70;;;16.90;99.90;;;;;;4990167;28;20064;-71
2022/05/13 12:33:23;;;;;;;5.90;1.60;;;17.10;99.90;;;;;;4969135;28;20042;-72
2022/05/13 12:39:05;;;;;;;5.72;1.67;;;17.10;99.90;;;;;;5003466;28;20553;-70
2022/05/13 12:41:44;;;;;;;6.68;1.90;;;17.40;99.90;;;;;;4976131;28;20061;-70
2022/05/13 12:44:31;;;;;;;9.23;1.88;;;17.80;99.90;;;;;;4993064;28;20100;-71
2022/05/13 12:47:19;;;;;;;5.22;1.70;;;18.20;99.90;;;;;;4992551;28;20053;-67
2022/05/13 12:50:13;;;;;;;4.57;1.90;;;18.50;99.90;;;;;;5006654;28;20054;-69
2022/05/13 12:52:41;;;;;;;4.45;1.27;;;18.40;99.10;;;;;;5006040;28;20188;-69
2022/05/13 12:55:18;;;;;;;6.60;1.52;;;18.50;93.30;;;;;;4976528;28;20054;-70
2022/05/13 12:58:02;;;;;;;4.13;1.60;;;18.10;92.20;;;;;;4985805;28;20053;-70
2022/05/13 13:00:47;;;;;;;6.60;1.42;;;17.90;97.00;;;;;;4990333;28;20526;-70
2022/05/13 13:03:15;;;;;;;5.88;1.90;;;17.70;99.70;;;;;;5008792;28;20050;-69
2022/05/13 13:05:46;;;;;;;3.92;1.40;;;17.60;99.90;;;;;;4985651;28;20043;-75
2022/05/13 13:08:26;;;;;;;4.25;1.40;;;17.50;99.80;;;;;;4973052;28;20516;-70
2022/05/13 13:11:04;;;;;;;7.38;1.80;;;17.60;99.90;;;;;;4988439;28;20049;-70
2022/05/13 13:13:33;;;;;;;5.93;2.03;;;17.50;99.90;;;;;;4979885;28;20137;-74
2022/05/13 13:16:05;;;;;;;4.10;1.65;;;17.40;99.90;;;;;;4994596;28;20042;-73
2022/05/13 13:18:32;;;;;;;;;;;17.50;99.90;;;;;;4993589;28;20048;-69
2022/05/13 13:21:03;;;;;;;4.70;1.58;;;17.30;99.90;;;;;;4969498;28;20008;-69
2022/05/13 13:23:34;;;;;;;4.63;1.75;;;17.60;99.90;;;;;;4985566;28;20495;-71
2022/05/13 13:26:02;;;;;;;7.80;1.50;;;17.60;99.90;;;;;;4988320;28;20067;-69
2022/05/13 13:28:34;;;;;;;5.65;1.40;;;18.00;99.90;;;;;;4980982;28;20077;-71
2022/05/13 13:31:03;;;;;;;3.97;1.30;;;19.00;92.30;;;;;;4977685;28;20094;-70
2022/05/13 13:33:32;;;;;;;6.03;1.73;;;19.10;95.20;;;;;;4964153;28;20050;-71
2022/05/13 13:36:15;;;;;;;2.65;1.25;;;19.10;77.40;;;;;;4990390;28;20041;-70
2022/05/13 13:38:50;;;;;;;8.25;1.75;;;18.80;84.80;;;;;;4992790;28;20045;-71
2022/05/13 13:41:35;;;;;;;7.80;1.60;;;18.80;84.30;;;;;;5006398;28;20052;-72